createdAt,value
2018-11-03T00:00:37.294Z,9.90
2018-11-03T00:01:37.268Z,8.40
2018-11-03T00:02:37.242Z,8.10
2018-11-03T00:03:37.219Z,7.50
2018-11-03T00:04:37.195Z,7.20
2018-11-03T00:05:37.181Z,7.80
2018-11-03T00:06:37.147Z,7.50
2018-11-03T00:07:37.134Z,8.00
2018-11-03T00:08:37.103Z,9.80
2018-11-03T00:09:37.078Z,9.80
2018-11-03T00:10:37.050Z,9.20
2018-11-03T00:11:37.029Z,8.30
2018-11-03T00:12:37.004Z,8.90
2018-11-03T00:13:36.982Z,9.50
2018-11-03T00:14:36.965Z,9.30
2018-11-03T00:15:36.935Z,8.80
2018-11-03T00:16:36.911Z,8.40
2018-11-03T00:17:36.886Z,9.00
2018-11-03T00:18:36.872Z,9.20
2018-11-03T00:19:36.843Z,9.30
2018-11-03T00:20:36.821Z,9.70
2018-11-03T00:21:36.793Z,9.60
2018-11-03T00:22:36.782Z,10.80
2018-11-03T00:23:36.746Z,10.50
2018-11-03T00:24:36.726Z,10.40
2018-11-03T00:25:36.696Z,10.00
2018-11-03T00:26:36.670Z,10.10
2018-11-03T00:27:36.657Z,9.80
2018-11-03T00:28:36.622Z,10.30
2018-11-03T00:29:36.602Z,10.30
2018-11-03T00:30:36.576Z,9.90
2018-11-03T00:31:36.551Z,9.90
2018-11-03T00:32:36.535Z,10.00
2018-11-03T00:33:36.506Z,10.20
2018-11-03T00:34:36.478Z,10.00
2018-11-03T00:35:36.457Z,9.70
2018-11-03T00:36:36.433Z,10.10
2018-11-03T00:37:36.430Z,10.30
2018-11-03T00:38:36.394Z,10.40
2018-11-03T00:39:36.361Z,10.10
2018-11-03T00:40:36.391Z,10.10
2018-11-03T00:41:36.311Z,10.00
2018-11-03T00:42:36.327Z,10.10
2018-11-03T00:43:36.264Z,10.60
2018-11-03T00:44:36.243Z,10.40
2018-11-03T00:45:36.218Z,9.90
2018-11-03T00:46:36.192Z,9.80
2018-11-03T00:47:36.169Z,10.00
2018-11-03T00:48:36.145Z,10.50
2018-11-03T00:49:36.122Z,9.70
2018-11-03T00:50:36.098Z,9.00
2018-11-03T00:51:36.079Z,9.90
2018-11-03T00:52:36.052Z,9.10
2018-11-03T00:53:36.028Z,9.60
2018-11-03T00:54:36.001Z,9.70
2018-11-03T00:55:35.977Z,9.90
2018-11-03T00:56:35.953Z,10.80
2018-11-03T00:57:35.928Z,10.00
2018-11-03T00:58:35.905Z,9.60
2018-11-03T00:59:35.879Z,10.10
2018-11-03T01:00:35.860Z,9.70
2018-11-03T01:01:35.837Z,9.80
2018-11-03T01:02:35.817Z,9.60
2018-11-03T01:03:35.784Z,9.40
2018-11-03T01:04:35.766Z,10.10
2018-11-03T01:05:35.738Z,10.30
2018-11-03T01:06:35.730Z,10.00
2018-11-03T01:07:35.693Z,9.80
2018-11-03T01:08:35.668Z,9.70
2018-11-03T01:09:35.641Z,10.00
2018-11-03T01:10:35.620Z,9.60
2018-11-03T01:11:35.595Z,10.20
2018-11-03T01:12:35.569Z,10.50
2018-11-03T01:13:35.546Z,9.90
2018-11-03T01:14:35.525Z,9.80
2018-11-03T01:15:35.501Z,10.00
2018-11-03T01:16:35.479Z,11.30
2018-11-03T01:17:35.450Z,11.10
2018-11-03T01:18:35.431Z,10.90
2018-11-03T01:19:35.402Z,11.20
2018-11-03T01:20:35.378Z,10.40
2018-11-03T01:21:35.354Z,11.00
2018-11-03T01:22:35.330Z,11.00
2018-11-03T01:23:35.366Z,11.20
2018-11-03T01:24:35.282Z,10.80
2018-11-03T01:25:35.259Z,11.00
2018-11-03T01:26:35.232Z,10.50
2018-11-03T01:27:35.209Z,10.30
2018-11-03T01:28:35.185Z,9.30
2018-11-03T01:29:35.162Z,10.70
2018-11-03T01:30:35.140Z,10.50
2018-11-03T01:31:35.114Z,10.10
2018-11-03T01:32:35.149Z,10.20
2018-11-03T01:33:35.074Z,10.40
2018-11-03T01:34:35.043Z,10.80
2018-11-03T01:35:35.017Z,10.70
2018-11-03T01:36:34.994Z,10.50
2018-11-03T01:37:34.971Z,10.90
2018-11-03T01:38:34.944Z,9.30
2018-11-03T01:39:34.922Z,9.90
2018-11-03T01:40:34.896Z,8.80
2018-11-03T01:41:34.876Z,9.20
2018-11-03T01:42:34.849Z,8.80
2018-11-03T01:43:34.831Z,9.30
2018-11-03T01:44:34.804Z,9.80
2018-11-03T01:45:34.783Z,9.30
2018-11-03T01:46:34.753Z,10.10
2018-11-03T01:47:34.735Z,10.10
2018-11-03T01:48:34.706Z,10.40
2018-11-03T01:49:34.682Z,9.70
2018-11-03T01:50:34.657Z,9.80
2018-11-03T01:51:34.637Z,10.00
2018-11-03T01:52:34.611Z,10.10
2018-11-03T01:53:34.586Z,10.10
2018-11-03T01:54:34.565Z,10.70
2018-11-03T01:55:34.539Z,9.60
2018-11-03T01:56:34.521Z,9.40
2018-11-03T01:57:34.489Z,9.70
2018-11-03T01:58:34.465Z,9.50
2018-11-03T01:59:34.444Z,10.10
2018-11-03T02:00:34.425Z,9.40
2018-11-03T02:01:34.395Z,10.30
2018-11-03T02:02:34.369Z,9.30
2018-11-03T02:03:34.347Z,8.70
2018-11-03T02:04:34.328Z,9.60
2018-11-03T02:05:34.310Z,9.70
2018-11-03T02:06:34.274Z,10.20
2018-11-03T02:07:34.250Z,10.70
2018-11-03T02:08:34.226Z,10.50
2018-11-03T02:09:34.203Z,10.80
2018-11-03T02:10:34.180Z,10.10
2018-11-03T02:11:34.166Z,10.00
2018-11-03T02:12:34.138Z,9.60
2018-11-03T02:13:34.104Z,9.90
2018-11-03T02:14:34.078Z,10.50
2018-11-03T02:15:34.056Z,10.30
2018-11-03T02:16:34.030Z,9.30
2018-11-03T02:17:34.007Z,11.30
2018-11-03T02:18:33.985Z,12.80
2018-11-03T02:19:33.959Z,13.60
2018-11-03T02:20:33.935Z,15.50
2018-11-03T02:21:33.910Z,13.20
2018-11-03T02:22:33.885Z,17.20
2018-11-03T02:23:33.868Z,14.60
2018-11-03T02:24:33.843Z,12.10
2018-11-03T02:25:33.815Z,11.40
2018-11-03T02:26:33.793Z,10.30
2018-11-03T02:27:33.773Z,10.40
2018-11-03T02:28:33.742Z,9.80
2018-11-03T02:29:33.717Z,10.70
2018-11-03T02:30:33.692Z,10.00
2018-11-03T02:31:33.669Z,10.20
2018-11-03T02:32:33.642Z,10.10
2018-11-03T02:33:33.619Z,9.90
2018-11-03T02:34:33.595Z,10.80
2018-11-03T02:35:33.579Z,10.00
2018-11-03T02:36:33.551Z,10.50
2018-11-03T02:37:33.521Z,11.60
2018-11-03T02:38:33.496Z,11.20
2018-11-03T02:39:33.473Z,9.50
2018-11-03T02:40:33.448Z,10.50
2018-11-03T02:41:33.424Z,9.70
2018-11-03T02:42:33.406Z,10.70
2018-11-03T02:43:33.384Z,10.80
2018-11-03T02:44:33.361Z,10.10
2018-11-03T02:45:33.332Z,10.10
2018-11-03T02:46:33.302Z,9.80
2018-11-03T02:47:33.280Z,10.30
2018-11-03T02:48:33.253Z,9.50
2018-11-03T02:49:33.269Z,9.70
2018-11-03T02:50:33.206Z,9.70
2018-11-03T02:51:33.183Z,10.10
2018-11-03T02:52:33.158Z,9.20
2018-11-03T02:53:33.133Z,9.50
2018-11-03T02:54:33.109Z,9.40
2018-11-03T02:55:33.091Z,10.30
2018-11-03T02:56:33.063Z,10.10
2018-11-03T02:57:33.041Z,9.90
2018-11-03T02:58:33.011Z,9.30
2018-11-03T02:59:32.988Z,10.00
2018-11-03T03:00:32.961Z,9.30
2018-11-03T03:01:32.945Z,9.20
2018-11-03T03:02:32.913Z,10.20
2018-11-03T03:03:32.889Z,9.60
2018-11-03T03:04:32.869Z,9.50
2018-11-03T03:05:32.842Z,9.80
2018-11-03T03:06:32.822Z,9.20
2018-11-03T03:07:32.790Z,9.30
2018-11-03T03:08:32.769Z,10.20
2018-11-03T03:09:32.742Z,9.90
2018-11-03T03:10:32.739Z,10.30
2018-11-03T03:11:32.694Z,9.20
2018-11-03T03:12:32.668Z,10.80
2018-11-03T03:13:32.648Z,10.30
2018-11-03T03:14:32.622Z,9.90
2018-11-03T03:15:32.643Z,10.20
2018-11-03T03:16:32.577Z,9.50
2018-11-03T03:17:32.559Z,10.00
2018-11-03T03:18:32.537Z,11.20
2018-11-03T03:19:32.498Z,11.00
2018-11-03T03:20:32.475Z,10.10
2018-11-03T03:21:32.449Z,10.60
2018-11-03T03:22:32.425Z,10.90
2018-11-03T03:23:32.409Z,10.40
2018-11-03T03:24:32.382Z,10.00
2018-11-03T03:25:32.351Z,10.60
2018-11-03T03:26:32.362Z,9.80
2018-11-03T03:27:32.303Z,10.00
2018-11-03T03:28:32.279Z,9.60
2018-11-03T03:29:32.327Z,9.20
2018-11-03T03:30:32.230Z,9.50
2018-11-03T03:31:32.207Z,9.50
2018-11-03T03:32:32.181Z,10.00
2018-11-03T03:33:32.156Z,9.80
2018-11-03T03:34:32.131Z,10.00
2018-11-03T03:35:32.105Z,9.50
2018-11-03T03:36:32.083Z,9.90
2018-11-03T03:37:32.065Z,9.60
2018-11-03T03:38:32.033Z,10.70
2018-11-03T03:39:32.010Z,10.00
2018-11-03T03:40:31.986Z,9.60
2018-11-03T03:41:31.960Z,10.20
2018-11-03T03:42:31.937Z,10.00
2018-11-03T03:43:31.912Z,10.10
2018-11-03T03:44:31.887Z,9.60
2018-11-03T03:45:31.863Z,9.80
2018-11-03T03:46:31.838Z,10.00
2018-11-03T03:47:31.829Z,9.60
2018-11-03T03:48:31.792Z,9.80
2018-11-03T03:49:31.783Z,9.80
2018-11-03T03:50:31.740Z,10.50
2018-11-03T03:51:31.714Z,9.80
2018-11-03T03:52:31.692Z,10.10
2018-11-03T03:53:31.674Z,10.20
2018-11-03T03:54:31.646Z,9.30
2018-11-03T03:55:31.615Z,10.30
2018-11-03T03:56:31.597Z,9.20
2018-11-03T03:57:31.566Z,9.90
2018-11-03T03:58:31.542Z,9.60
2018-11-03T03:59:31.519Z,10.00
2018-11-03T04:00:31.493Z,10.20
2018-11-03T04:01:31.485Z,9.20
2018-11-03T04:02:31.444Z,10.10
2018-11-03T04:03:31.421Z,9.70
2018-11-03T04:04:31.398Z,9.30
2018-11-03T04:05:31.390Z,8.60
2018-11-03T04:06:31.345Z,9.10
2018-11-03T04:07:31.326Z,9.00
2018-11-03T04:08:31.298Z,9.30
2018-11-03T04:09:31.274Z,9.40
2018-11-03T04:10:31.248Z,8.90
2018-11-03T04:11:31.223Z,8.90
2018-11-03T04:12:31.204Z,9.20
2018-11-03T04:13:31.176Z,8.50
2018-11-03T04:14:31.149Z,8.50
2018-11-03T04:15:31.132Z,8.30
2018-11-03T04:16:31.103Z,7.50
2018-11-03T04:17:31.077Z,7.40
2018-11-03T04:18:31.050Z,7.60
2018-11-03T04:19:31.027Z,7.70
2018-11-03T04:20:31.003Z,7.80
2018-11-03T04:21:30.981Z,8.00
2018-11-03T04:22:30.952Z,7.80
2018-11-03T04:23:30.928Z,8.50
2018-11-03T04:24:30.940Z,8.00
2018-11-03T04:25:30.889Z,8.50
2018-11-03T04:26:30.873Z,8.80
2018-11-03T04:27:30.832Z,8.40
2018-11-03T04:28:30.806Z,8.70
2018-11-03T04:29:30.782Z,8.50
2018-11-03T04:30:30.757Z,8.30
2018-11-03T04:31:30.733Z,8.40
2018-11-03T04:32:30.706Z,8.90
2018-11-03T04:33:30.683Z,9.10
2018-11-03T04:34:30.659Z,9.10
2018-11-03T04:35:30.632Z,9.30
2018-11-03T04:36:30.610Z,8.90
2018-11-03T04:37:30.586Z,8.90
2018-11-03T04:38:30.560Z,9.30
2018-11-03T04:39:30.536Z,9.60
2018-11-03T04:40:30.510Z,8.20
2018-11-03T04:41:30.494Z,9.10
2018-11-03T04:42:30.459Z,9.80
2018-11-03T04:43:30.438Z,9.80
2018-11-03T04:44:30.412Z,9.70
2018-11-03T04:45:30.525Z,9.40
2018-11-03T04:46:30.365Z,9.90
2018-11-03T04:47:30.345Z,9.60
2018-11-03T04:48:30.314Z,9.90
2018-11-03T04:49:30.288Z,10.10
2018-11-03T04:50:30.268Z,9.80
2018-11-03T04:51:30.239Z,10.30
2018-11-03T04:52:30.216Z,9.70
2018-11-03T04:53:30.191Z,10.00
2018-11-03T04:54:30.244Z,9.30
2018-11-03T04:55:30.141Z,9.40
2018-11-03T04:56:30.115Z,9.30
2018-11-03T04:57:30.094Z,9.10
2018-11-03T04:58:30.066Z,9.80
2018-11-03T04:59:30.046Z,9.10
2018-11-03T05:00:30.018Z,9.20
2018-11-03T05:01:30.023Z,9.50
2018-11-03T05:02:29.975Z,8.90
2018-11-03T05:03:29.943Z,9.70
2018-11-03T05:04:29.928Z,9.20
2018-11-03T05:05:29.894Z,8.90
2018-11-03T05:06:29.869Z,8.50
2018-11-03T05:07:29.846Z,8.60
2018-11-03T05:08:29.820Z,8.00
2018-11-03T05:09:29.796Z,8.30
2018-11-03T05:10:30.005Z,8.10
2018-11-03T05:11:29.752Z,8.00
2018-11-03T05:12:29.726Z,7.10
2018-11-03T05:13:29.697Z,7.30
2018-11-03T05:14:29.673Z,7.10
2018-11-03T05:15:29.647Z,7.50
2018-11-03T05:16:29.625Z,8.10
2018-11-03T05:17:29.599Z,9.20
2018-11-03T05:18:29.574Z,9.20
2018-11-03T05:19:29.552Z,9.70
2018-11-03T05:20:29.526Z,9.30
2018-11-03T05:21:29.729Z,9.40
2018-11-03T05:22:29.476Z,9.60
2018-11-03T05:23:29.452Z,9.50
2018-11-03T05:24:29.426Z,10.00
2018-11-03T05:25:29.401Z,11.40
2018-11-03T05:26:29.378Z,10.80
2018-11-03T05:27:29.352Z,10.60
2018-11-03T05:28:29.329Z,10.70
2018-11-03T05:29:29.305Z,10.90
2018-11-03T05:30:29.287Z,10.20
2018-11-03T05:31:29.254Z,11.20
2018-11-03T05:32:29.233Z,10.30
2018-11-03T05:33:29.206Z,10.60
2018-11-03T05:34:29.180Z,10.00
2018-11-03T05:35:29.157Z,10.60
2018-11-03T05:36:29.128Z,10.20
2018-11-03T05:37:29.106Z,10.80
2018-11-03T05:38:29.078Z,11.80
2018-11-03T05:39:29.055Z,11.40
2018-11-03T05:40:29.033Z,10.20
2018-11-03T05:41:29.002Z,10.50
2018-11-03T05:42:28.979Z,9.80
2018-11-03T05:43:28.956Z,9.30
2018-11-03T05:44:28.931Z,9.30
2018-11-03T05:45:28.905Z,9.80
2018-11-03T05:46:28.892Z,10.60
2018-11-03T05:47:28.863Z,11.90
2018-11-03T05:48:28.832Z,11.10
2018-11-03T05:49:28.805Z,10.60
2018-11-03T05:50:28.781Z,10.30
2018-11-03T05:51:28.753Z,9.90
2018-11-03T05:52:28.731Z,9.50
2018-11-03T05:53:28.706Z,10.20
2018-11-03T05:54:28.684Z,10.20
2018-11-03T05:55:28.657Z,10.80
2018-11-03T05:56:28.633Z,10.30
2018-11-03T05:57:28.605Z,10.50
2018-11-03T05:58:28.580Z,10.10
2018-11-03T05:59:28.557Z,10.70
2018-11-03T06:00:28.543Z,9.80
2018-11-03T06:01:28.506Z,10.70
2018-11-03T06:02:28.490Z,10.20
2018-11-03T06:03:28.461Z,10.50
2018-11-03T06:04:28.433Z,9.90
2018-11-03T06:05:28.409Z,10.40
2018-11-03T06:06:28.383Z,9.80
2018-11-03T06:07:28.366Z,10.00
2018-11-03T06:08:28.333Z,10.70
2018-11-03T06:09:28.312Z,10.20
2018-11-03T06:10:28.284Z,9.50
2018-11-03T06:11:28.259Z,10.40
2018-11-03T06:12:28.233Z,10.80
2018-11-03T06:13:28.214Z,10.50
2018-11-03T06:14:28.190Z,11.40
2018-11-03T06:15:28.236Z,11.00
2018-11-03T06:16:28.141Z,10.90
2018-11-03T06:17:28.118Z,10.30
2018-11-03T06:18:28.086Z,10.40
2018-11-03T06:19:28.060Z,10.80
2018-11-03T06:20:28.036Z,10.00
2018-11-03T06:21:28.017Z,11.30
2018-11-03T06:22:28.072Z,10.50
2018-11-03T06:23:28.056Z,10.60
2018-11-03T06:24:27.937Z,10.30
2018-11-03T06:25:27.918Z,10.40
2018-11-03T06:26:27.887Z,11.30
2018-11-03T06:27:27.890Z,10.60
2018-11-03T06:28:27.836Z,11.40
2018-11-03T06:29:27.814Z,10.90
2018-11-03T06:30:27.788Z,11.80
2018-11-03T06:31:27.764Z,10.90
2018-11-03T06:32:27.737Z,10.50
2018-11-03T06:33:27.756Z,11.60
2018-11-03T06:34:27.690Z,11.60
2018-11-03T06:35:27.833Z,12.20
2018-11-03T06:36:27.637Z,12.90
2018-11-03T06:37:27.614Z,11.90
2018-11-03T06:38:27.591Z,12.00
2018-11-03T06:39:27.565Z,11.50
2018-11-03T06:40:27.539Z,11.20
2018-11-03T06:41:27.515Z,10.90
2018-11-03T06:42:27.490Z,10.00
2018-11-03T06:43:27.463Z,11.00
2018-11-03T06:44:27.466Z,11.20
2018-11-03T06:45:27.416Z,11.40
2018-11-03T06:46:27.453Z,11.10
2018-11-03T06:47:27.454Z,11.80
2018-11-03T06:48:27.348Z,11.20
2018-11-03T06:49:27.318Z,11.20
2018-11-03T06:50:27.290Z,11.00
2018-11-03T06:51:27.269Z,11.30
2018-11-03T06:52:27.250Z,11.20
2018-11-03T06:53:27.219Z,11.90
2018-11-03T06:54:27.195Z,10.80
2018-11-03T06:55:27.168Z,11.10
2018-11-03T06:56:27.145Z,11.10
2018-11-03T06:57:27.122Z,11.60
2018-11-03T06:58:27.106Z,10.80
2018-11-03T06:59:27.076Z,12.10
2018-11-03T07:00:27.048Z,11.60
2018-11-03T07:01:27.023Z,12.40
2018-11-03T07:02:26.996Z,11.80
2018-11-03T07:03:26.971Z,10.60
2018-11-03T07:04:26.947Z,11.00
2018-11-03T07:05:26.923Z,11.70
2018-11-03T07:06:26.910Z,12.50
2018-11-03T07:07:26.877Z,11.90
2018-11-03T07:08:26.851Z,11.80
2018-11-03T07:09:26.821Z,11.30
2018-11-03T07:10:26.830Z,11.40
2018-11-03T07:11:26.797Z,10.80
2018-11-03T07:12:27.062Z,11.80
2018-11-03T07:13:26.814Z,11.20
2018-11-03T07:14:26.705Z,11.80
2018-11-03T07:15:26.677Z,11.20
2018-11-03T07:16:26.652Z,11.30
2018-11-03T07:17:26.626Z,10.40
2018-11-03T07:18:26.608Z,11.60
2018-11-03T07:19:26.603Z,11.60
2018-11-03T07:20:26.548Z,12.10
2018-11-03T07:21:26.555Z,11.50
2018-11-03T07:22:26.501Z,11.70
2018-11-03T07:23:26.475Z,12.70
2018-11-03T07:24:26.452Z,12.70
2018-11-03T07:25:26.425Z,13.60
2018-11-03T07:26:26.403Z,13.10
2018-11-03T07:27:26.378Z,13.10
2018-11-03T07:28:26.356Z,13.10
2018-11-03T07:29:26.365Z,13.10
2018-11-03T07:30:26.304Z,13.20
2018-11-03T07:31:26.286Z,12.40
2018-11-03T07:32:26.256Z,12.50
2018-11-03T07:33:26.228Z,12.90
2018-11-03T07:34:26.203Z,13.60
2018-11-03T07:35:26.178Z,12.10
2018-11-03T07:36:26.154Z,14.20
2018-11-03T07:37:26.137Z,12.90
2018-11-03T07:38:26.104Z,13.60
2018-11-03T07:39:26.086Z,13.40
2018-11-03T07:40:26.057Z,13.60
2018-11-03T07:41:26.142Z,13.90
2018-11-03T07:42:26.021Z,14.90
2018-11-03T07:43:25.984Z,13.80
2018-11-03T07:44:25.970Z,14.70
2018-11-03T07:45:25.934Z,14.20
2018-11-03T07:46:25.908Z,15.30
2018-11-03T07:47:25.887Z,14.40
2018-11-03T07:48:25.898Z,15.50
2018-11-03T07:49:25.941Z,15.50
2018-11-03T07:50:25.812Z,14.80
2018-11-03T07:51:25.799Z,14.90
2018-11-03T07:52:25.764Z,14.80
2018-11-03T07:53:25.737Z,13.80
2018-11-03T07:54:25.727Z,14.30
2018-11-03T07:55:25.695Z,14.90
2018-11-03T07:56:25.663Z,14.60
2018-11-03T07:57:25.648Z,14.90
2018-11-03T07:58:25.615Z,15.00
2018-11-03T07:59:25.592Z,15.60
2018-11-03T08:00:25.629Z,14.70
2018-11-03T08:01:25.547Z,14.70
2018-11-03T08:02:25.516Z,15.40
2018-11-03T08:03:25.494Z,15.40
2018-11-03T08:04:25.467Z,15.20
2018-11-03T08:05:25.444Z,15.10
2018-11-03T08:06:25.417Z,15.30
2018-11-03T08:07:25.394Z,15.00
2018-11-03T08:08:25.371Z,15.20
2018-11-03T08:09:25.346Z,16.20
2018-11-03T08:10:25.324Z,14.90
2018-11-03T08:11:25.297Z,14.30
2018-11-03T08:12:25.273Z,15.20
2018-11-03T08:13:25.258Z,15.80
2018-11-03T08:14:25.232Z,15.30
2018-11-03T08:15:25.213Z,15.30
2018-11-03T08:16:25.181Z,15.30
2018-11-03T08:17:25.153Z,14.60
2018-11-03T08:18:25.125Z,14.90
2018-11-03T08:19:25.101Z,14.60
2018-11-03T08:20:25.078Z,15.00
2018-11-03T08:21:25.055Z,15.50
2018-11-03T08:22:25.037Z,14.80
2018-11-03T08:23:25.003Z,15.20
2018-11-03T08:24:24.990Z,15.50
2018-11-03T08:25:24.956Z,16.40
2018-11-03T08:26:24.932Z,16.90
2018-11-03T08:27:24.906Z,15.80
2018-11-03T08:28:24.886Z,15.20
2018-11-03T08:29:24.863Z,15.50
2018-11-03T08:30:24.835Z,15.50
2018-11-03T08:31:24.855Z,16.90
2018-11-03T08:32:24.791Z,16.10
2018-11-03T08:33:24.767Z,15.40
2018-11-03T08:34:24.741Z,15.30
2018-11-03T08:35:24.714Z,16.70
2018-11-03T08:36:24.699Z,15.80
2018-11-03T08:37:24.676Z,15.70
2018-11-03T08:38:24.640Z,15.40
2018-11-03T08:39:24.642Z,16.40
2018-11-03T08:40:24.592Z,15.70
2018-11-03T08:41:24.571Z,15.80
2018-11-03T08:42:24.543Z,15.70
2018-11-03T08:43:24.585Z,16.30
2018-11-03T08:44:24.502Z,14.70
2018-11-03T08:45:24.486Z,16.20
2018-11-03T08:46:24.450Z,15.80
2018-11-03T08:47:24.422Z,16.60
2018-11-03T08:48:24.488Z,16.50
2018-11-03T08:49:24.385Z,16.40
2018-11-03T08:50:24.359Z,19.10
2018-11-03T08:51:24.326Z,18.30
2018-11-03T08:52:24.307Z,19.00
2018-11-03T08:53:24.287Z,19.50
2018-11-03T08:54:24.262Z,20.10
2018-11-03T08:55:24.231Z,19.00
2018-11-03T08:56:24.208Z,19.50
2018-11-03T08:57:24.181Z,18.70
2018-11-03T08:58:24.165Z,18.60
2018-11-03T08:59:24.139Z,18.90
2018-11-03T09:00:24.117Z,19.30
2018-11-03T09:01:24.085Z,18.80
2018-11-03T09:02:24.062Z,19.50
2018-11-03T09:03:24.036Z,19.50
2018-11-03T09:04:24.029Z,20.30
2018-11-03T09:05:23.996Z,19.40
2018-11-03T09:06:23.970Z,20.50
2018-11-03T09:07:23.941Z,18.60
2018-11-03T09:08:23.921Z,19.50
2018-11-03T09:09:23.916Z,19.00
2018-11-03T09:10:23.871Z,19.70
2018-11-03T09:11:23.843Z,19.20
2018-11-03T09:12:23.819Z,19.70
2018-11-03T09:13:23.802Z,19.30
2018-11-03T09:14:23.849Z,19.70
2018-11-03T09:15:23.750Z,20.20
2018-11-03T09:16:23.744Z,20.70
2018-11-03T09:17:23.699Z,20.30
2018-11-03T09:18:23.674Z,20.10
2018-11-03T09:19:23.658Z,20.60
2018-11-03T09:20:23.629Z,21.00
2018-11-03T09:21:23.619Z,20.60
2018-11-03T09:22:23.594Z,20.80
2018-11-03T09:23:23.556Z,20.90
2018-11-03T09:24:23.589Z,21.20
2018-11-03T09:25:23.514Z,23.40
2018-11-03T09:26:23.485Z,23.40
2018-11-03T09:27:23.460Z,23.20
2018-11-03T09:28:23.437Z,23.30
2018-11-03T09:29:23.417Z,22.80
2018-11-03T09:30:23.388Z,22.60
2018-11-03T09:31:23.369Z,21.80
2018-11-03T09:32:23.344Z,23.40
2018-11-03T09:33:23.323Z,22.80
2018-11-03T09:34:23.307Z,24.30
2018-11-03T09:35:23.271Z,23.80
2018-11-03T09:36:23.257Z,24.60
2018-11-03T09:37:23.232Z,23.80
2018-11-03T09:38:23.207Z,24.90
2018-11-03T09:39:23.274Z,23.80
2018-11-03T09:40:23.153Z,23.90
2018-11-03T09:41:23.128Z,23.80
2018-11-03T09:42:23.107Z,23.00
2018-11-03T09:43:23.125Z,23.60
2018-11-03T09:44:23.061Z,24.10
2018-11-03T09:45:23.051Z,25.00
2018-11-03T09:46:23.011Z,24.80
2018-11-03T09:47:23.023Z,25.80
2018-11-03T09:48:22.966Z,25.50
2018-11-03T09:49:22.943Z,24.90
2018-11-03T09:50:22.938Z,23.70
2018-11-03T09:51:22.963Z,26.50
2018-11-03T09:52:22.872Z,24.40
2018-11-03T09:53:22.854Z,25.90
2018-11-03T09:54:22.832Z,25.70
2018-11-03T09:55:22.809Z,25.70
2018-11-03T09:56:22.797Z,26.70
2018-11-03T09:57:22.754Z,26.00
2018-11-03T09:58:22.731Z,25.60
2018-11-03T09:59:22.708Z,25.40
2018-11-03T10:00:22.684Z,25.30
2018-11-03T10:01:22.674Z,26.20
2018-11-03T10:02:22.643Z,26.20
2018-11-03T10:03:22.615Z,25.40
2018-11-03T10:04:22.606Z,25.30
2018-11-03T10:05:22.571Z,24.80
2018-11-03T10:06:22.592Z,24.00
2018-11-03T10:07:22.519Z,25.10
2018-11-03T10:08:22.496Z,25.20
2018-11-03T10:09:22.479Z,24.30
2018-11-03T10:10:22.452Z,24.90
2018-11-03T10:11:22.426Z,25.40
2018-11-03T10:12:22.405Z,25.90
2018-11-03T10:13:22.382Z,25.60
2018-11-03T10:14:22.356Z,26.20
2018-11-03T10:15:22.335Z,26.40
2018-11-03T10:16:22.311Z,26.20
2018-11-03T10:17:22.291Z,25.30
2018-11-03T10:18:22.268Z,25.40
2018-11-03T10:19:22.245Z,26.80
2018-11-03T10:20:22.219Z,25.10
2018-11-03T10:21:22.199Z,25.50
2018-11-03T10:22:22.266Z,26.00
2018-11-03T10:23:22.150Z,25.00
2018-11-03T10:24:22.127Z,26.20
2018-11-03T10:25:22.121Z,25.60
2018-11-03T10:26:22.080Z,25.40
2018-11-03T10:27:22.055Z,25.50
2018-11-03T10:28:22.035Z,27.10
2018-11-03T10:29:22.009Z,25.50
2018-11-03T10:30:21.986Z,25.70
2018-11-03T10:31:21.964Z,25.70
2018-11-03T10:32:21.944Z,25.30
2018-11-03T10:33:21.926Z,26.00
2018-11-03T10:34:21.896Z,24.30
2018-11-03T10:35:21.870Z,25.10
2018-11-03T10:36:21.845Z,25.70
2018-11-03T10:37:21.825Z,24.70
2018-11-03T10:38:21.805Z,26.20
2018-11-03T10:39:21.780Z,24.80
2018-11-03T10:40:21.755Z,26.10
2018-11-03T10:41:21.741Z,25.10
2018-11-03T10:42:21.747Z,24.70
2018-11-03T10:43:21.692Z,25.60
2018-11-03T10:44:21.663Z,24.70
2018-11-03T10:45:21.640Z,24.30
2018-11-03T10:46:21.676Z,24.10
2018-11-03T10:47:21.591Z,26.00
2018-11-03T10:48:21.570Z,25.40
2018-11-03T10:49:21.547Z,23.90
2018-11-03T10:50:21.527Z,26.30
2018-11-03T10:51:21.502Z,25.10
2018-11-03T10:52:21.478Z,26.20
2018-11-03T10:53:21.514Z,26.00
2018-11-03T10:54:21.435Z,24.50
2018-11-03T10:55:21.408Z,25.10
2018-11-03T10:56:21.405Z,24.90
2018-11-03T10:57:21.365Z,25.90
2018-11-03T10:58:21.372Z,26.00
2018-11-03T10:59:21.317Z,25.70
2018-11-03T11:00:21.294Z,25.90
2018-11-03T11:01:21.275Z,26.20
2018-11-03T11:02:21.250Z,26.20
2018-11-03T11:03:21.326Z,25.50
2018-11-03T11:04:21.205Z,25.30
2018-11-03T11:05:21.193Z,24.50
2018-11-03T11:06:21.165Z,24.20
2018-11-03T11:07:21.135Z,25.10
2018-11-03T11:08:21.122Z,24.60
2018-11-03T11:09:21.091Z,24.50
2018-11-03T11:10:21.067Z,24.40
2018-11-03T11:11:21.049Z,23.50
2018-11-03T11:12:21.023Z,25.00
2018-11-03T11:13:21.016Z,25.70
2018-11-03T11:14:21.131Z,25.40
2018-11-03T11:15:20.955Z,25.30
2018-11-03T11:16:21.033Z,25.00
2018-11-03T11:17:20.911Z,25.20
2018-11-03T11:18:20.885Z,24.50
2018-11-03T11:19:20.862Z,24.40
2018-11-03T11:20:20.839Z,23.40
2018-11-03T11:21:20.824Z,22.70
2018-11-03T11:22:20.801Z,23.40
2018-11-03T11:23:20.834Z,24.20
2018-11-03T11:24:21.011Z,21.70
2018-11-03T11:25:20.890Z,22.00
2018-11-03T11:26:20.729Z,23.20
2018-11-03T11:27:20.686Z,22.80
2018-11-03T11:28:20.663Z,22.00
2018-11-03T11:29:20.640Z,21.60
2018-11-03T11:30:20.616Z,21.00
2018-11-03T11:31:20.704Z,21.60
2018-11-03T11:32:20.592Z,21.50
2018-11-03T11:33:20.548Z,22.10
2018-11-03T11:34:20.526Z,22.10
2018-11-03T11:35:20.508Z,22.90
2018-11-03T11:36:20.477Z,21.50
2018-11-03T11:37:20.484Z,20.20
2018-11-03T11:38:20.439Z,20.00
2018-11-03T11:39:20.412Z,20.30
2018-11-03T11:40:20.392Z,21.20
2018-11-03T11:41:20.368Z,20.00
2018-11-03T11:42:20.343Z,18.70
2018-11-03T11:43:20.395Z,20.30
2018-11-03T11:44:20.340Z,19.80
2018-11-03T11:45:20.285Z,20.20
2018-11-03T11:46:20.254Z,21.00
2018-11-03T11:47:20.270Z,20.20
2018-11-03T11:48:20.210Z,20.50
2018-11-03T11:49:20.187Z,20.40
2018-11-03T11:50:20.169Z,19.60
2018-11-03T11:51:20.145Z,21.20
2018-11-03T11:52:20.119Z,21.20
2018-11-03T11:53:20.098Z,22.60
2018-11-03T11:54:20.076Z,21.70
2018-11-03T11:55:20.056Z,22.30
2018-11-03T11:56:20.028Z,21.60
2018-11-03T11:57:20.009Z,21.00
2018-11-03T11:58:19.994Z,21.90
2018-11-03T11:59:19.968Z,20.80
2018-11-03T12:00:19.945Z,21.60
2018-11-03T12:01:19.920Z,19.70
2018-11-03T12:02:19.931Z,20.00
2018-11-03T12:03:19.876Z,21.00
2018-11-03T12:04:19.856Z,20.80
2018-11-03T12:05:19.842Z,20.60
2018-11-03T12:06:19.819Z,19.50
2018-11-03T12:07:19.786Z,20.10
2018-11-03T12:08:19.779Z,21.20
2018-11-03T12:09:19.748Z,20.10
2018-11-03T12:10:19.870Z,20.40
2018-11-03T12:11:19.696Z,20.50
2018-11-03T12:12:19.687Z,21.50
2018-11-03T12:13:19.649Z,22.00
2018-11-03T12:14:19.632Z,20.20
2018-11-03T12:15:19.605Z,21.70
2018-11-03T12:16:19.698Z,20.40
2018-11-03T12:17:19.567Z,20.90
2018-11-03T12:18:19.539Z,20.90
2018-11-03T12:19:19.515Z,20.80
2018-11-03T12:20:19.496Z,19.90
2018-11-03T12:21:19.475Z,18.70
2018-11-03T12:22:19.464Z,18.80
2018-11-03T12:23:19.426Z,18.70
2018-11-03T12:24:19.408Z,19.70
2018-11-03T12:25:19.436Z,18.70
2018-11-03T12:26:19.359Z,18.60
2018-11-03T12:27:19.339Z,17.70
2018-11-03T12:28:19.317Z,18.70
2018-11-03T12:29:19.294Z,18.60
2018-11-03T12:30:19.272Z,17.90
2018-11-03T12:31:19.246Z,19.10
2018-11-03T12:32:19.228Z,18.30
2018-11-03T12:33:19.204Z,19.00
2018-11-03T12:34:19.184Z,16.70
2018-11-03T12:35:19.164Z,16.30
2018-11-03T12:36:19.138Z,17.00
2018-11-03T12:37:19.116Z,15.40
2018-11-03T12:38:19.092Z,16.10
2018-11-03T12:39:19.073Z,16.90
2018-11-03T12:40:19.047Z,16.40
2018-11-03T12:41:19.044Z,16.90
2018-11-03T12:42:19.002Z,16.70
2018-11-03T12:43:18.981Z,17.50
2018-11-03T12:44:18.963Z,17.10
2018-11-03T12:45:18.937Z,17.40
2018-11-03T12:46:18.946Z,19.30
2018-11-03T12:47:18.893Z,18.90
2018-11-03T12:48:18.975Z,17.90
2018-11-03T12:49:18.850Z,19.70
2018-11-03T12:50:18.840Z,17.40
2018-11-03T12:51:18.810Z,17.90
2018-11-03T12:52:18.789Z,19.20
2018-11-03T12:53:18.783Z,18.90
2018-11-03T12:54:18.748Z,17.70
2018-11-03T12:55:18.718Z,17.50
2018-11-03T12:56:18.696Z,14.90
2018-11-03T12:57:18.673Z,14.60
2018-11-03T12:58:18.651Z,14.90
2018-11-03T12:59:18.677Z,14.70